Time;durP1;ratioP1;P1;durP2;ratioP2;P2;SDS_P1;SDS_P2;PMS_P1;PMS_P2;Temp;Humidity;BMP_temperature;BMP_pressure;BME280_temperature;BME280_humidity;BME280_pressure;Samples;Min_cycle;Max_cycle;Signal;HPM_P1;HPM_P2
2022/05/30 00:02:17;;;;;;;1.80;1.10;;;;;;;;;;5052560;28;20243;-82
2022/05/30 00:04:44;;;;;;;2.85;1.75;;;;;;;;;;5048861;28;20678;-82
2022/05/30 00:07:11;;;;;;;5.55;1.42;;;;;;;;;;5051188;28;20484;-82
2022/05/30 00:09:38;;;;;;;3.47;1.60;;;;;;;;;;5048514;28;20201;-82
2022/05/30 00:12:06;;;;;;;2.60;1.35;;;;;;;;;;5041129;28;20203;-82
2022/05/30 00:14:33;;;;;;;2.65;1.55;;;;;;;;;;5052185;28;20215;-84
2022/05/30 00:17:01;;;;;;;2.30;1.30;;;;;;;;;;5050558;28;20194;-84
2022/05/30 00:19:28;;;;;;;1.30;1.10;;;;;;;;;;5042840;28;20205;-84
2022/05/30 00:21:56;;;;;;;5.90;1.00;;;;;;;;;;5047881;28;20203;-83
2022/05/30 00:24:23;;;;;;;2.20;1.10;;;;;;;;;;5051214;28;20676;-82
2022/05/30 00:26:50;;;;;;;4.00;1.67;;;;;;;;;;5046421;28;20676;-84
2022/05/30 00:29:17;;;;;;;3.20;1.17;;;;;;;;;;5049615;28;20194;-83
2022/05/30 00:31:44;;;;;;;1.20;0.90;;;;;;;;;;5050545;28;20230;-83
2022/05/30 00:34:13;;;;;;;1.65;1.20;;;;;;;;;;5047547;28;20203;-84
2022/05/30 00:36:40;;;;;;;2.30;1.10;;;;;;;;;;5049489;28;20600;-85
2022/05/30 00:39:07;;;;;;;3.10;2.28;;;;;;;;;;5050303;28;20198;-83
2022/05/30 00:41:34;;;;;;;3.97;1.13;;;;;;;;;;5059829;28;20219;-83
2022/05/30 00:44:01;;;;;;;4.47;1.50;;;;;;;;;;5043788;28;20290;-83
2022/05/30 00:46:28;;;;;;;1.70;1.10;;;;;;;;;;5041950;28;20604;-83
2022/05/30 00:48:56;;;;;;;2.28;1.20;;;;;;;;;;5044301;28;20654;-83
2022/05/30 00:51:27;;;;;;;2.50;1.38;;;;;;;;;;5048946;28;20194;-83
2022/05/30 00:53:56;;;;;;;1.65;0.98;;;;;;;;;;5044328;28;20203;-81
2022/05/30 00:56:24;;;;;;;2.38;1.40;;;;;;;;;;5051943;28;20203;-83
2022/05/30 00:58:52;;;;;;;3.60;1.17;;;;;;;;;;5049031;28;20215;-84
2022/05/30 01:01:20;;;;;;;5.35;1.30;;;;;;;;;;5046528;28;20662;-83
2022/05/30 01:06:36;;;;;;;1.40;1.00;;;;;;;;;;5047540;28;20193;-84
2022/05/30 01:09:05;;;;;;;3.55;1.27;;;;;;;;;;5049705;28;20551;-83
2022/05/30 01:11:52;;;;;;;4.78;1.30;;;;;;;;;;5046144;28;20604;-84
2022/05/30 01:14:20;;;;;;;3.63;1.10;;;;;;;;;;5046938;28;20654;-84
2022/05/30 01:16:47;;;;;;;2.05;1.33;;;;;;;;;;5046013;28;20230;-84
2022/05/30 01:19:21;;;;;;;1.90;1.13;;;;;;;;;;5045897;28;20581;-85
2022/05/30 01:21:57;;;;;;;2.70;1.13;;;;;;;;;;5049403;28;20238;-84
2022/05/30 01:24:29;;;;;;;2.85;1.30;;;;;;;;;;5046673;28;20646;-84
2022/05/30 01:27:05;;;;;;;3.40;1.20;;;;;;;;;;5048355;28;20320;-83
2022/05/30 01:29:36;;;;;;;2.00;1.20;;;;;;;;;;5049543;28;20198;-85
2022/05/30 01:32:03;;;;;;;2.00;1.60;;;;;;;;;;5046155;28;20586;-85
2022/05/30 01:34:30;;;;;;;1.85;1.10;;;;;;;;;;5045556;28;20202;-85
2022/05/30 01:36:57;;;;;;;4.00;1.38;;;;;;;;;;5049109;28;20202;-84
2022/05/30 01:39:24;;;;;;;3.35;1.10;;;;;;;;;;5047742;28;20660;-85
2022/05/30 01:41:51;;;;;;;4.32;1.50;;;;;;;;;;5056005;28;20222;-85
2022/05/30 01:44:19;;;;;;;3.65;1.17;;;;;;;;;;5047235;28;20228;-85
2022/05/30 01:46:47;;;;;;;4.82;1.55;;;;;;;;;;5048114;28;20210;-85
2022/05/30 01:49:14;;;;;;;2.40;1.40;;;;;;;;;;5043624;28;20203;-85
2022/05/30 01:51:41;;;;;;;3.25;1.38;;;;;;;;;;5047393;28;20198;-83
2022/05/30 01:54:08;;;;;;;2.60;1.23;;;;;;;;;;5038038;28;20191;-82
2022/05/30 01:56:35;;;;;;;3.60;1.40;;;;;;;;;;5050771;28;20208;-83
2022/05/30 01:59:02;;;;;;;4.35;1.38;;;;;;;;;;5048237;28;20198;-83
2022/05/30 02:01:30;;;;;;;4.15;1.30;;;;;;;;;;5044711;28;20201;-86
2022/05/30 02:04:01;;;;;;;3.83;1.40;;;;;;;;;;5046690;28;20225;-85
2022/05/30 02:06:28;;;;;;;1.85;1.08;;;;;;;;;;5047170;28;20207;-84
2022/05/30 02:08:55;;;;;;;2.13;1.42;;;;;;;;;;5049188;28;20200;-84
2022/05/30 02:11:22;;;;;;;2.33;1.20;;;;;;;;;;5040989;28;20672;-83
2022/05/30 02:13:49;;;;;;;1.70;1.33;;;;;;;;;;5047823;28;20212;-83
2022/05/30 02:19:03;;;;;;;2.63;1.10;;;;;;;;;;5050244;28;20248;-82
2022/05/30 02:21:31;;;;;;;3.60;1.40;;;;;;;;;;5047147;28;20565;-82
2022/05/30 02:23:59;;;;;;;3.67;1.17;;;;;;;;;;5045762;28;20310;-83
2022/05/30 02:26:26;;;;;;;4.50;1.38;;;;;;;;;;5043683;28;20203;-82
2022/05/30 02:28:53;;;;;;;3.33;1.40;;;;;;;;;;5050252;28;20332;-82
2022/05/30 02:31:20;;;;;;;3.83;1.00;;;;;;;;;;5048461;28;20762;-83
2022/05/30 02:36:44;;;;;;;2.20;1.13;;;;;;;;;;5050635;28;20661;-82
2022/05/30 02:39:11;;;;;;;1.55;1.13;;;;;;;;;;5044252;28;20293;-83
2022/05/30 02:41:38;;;;;;;2.28;1.27;;;;;;;;;;5044658;28;20701;-82
2022/05/30 02:44:06;;;;;;;2.08;1.10;;;;;;;;;;5045101;28;20212;-82
2022/05/30 02:46:33;;;;;;;1.85;1.10;;;;;;;;;;5048734;28;20203;-83
2022/05/30 02:49:00;;;;;;;3.10;1.30;;;;;;;;;;5050209;28;20650;-84
2022/05/30 02:51:27;;;;;;;2.65;1.40;;;;;;;;;;5050706;28;20198;-82
2022/05/30 02:53:56;;;;;;;2.65;1.30;;;;;;;;;;5047521;28;20219;-85
2022/05/30 02:56:23;;;;;;;2.75;1.20;;;;;;;;;;5044509;28;20204;-84
2022/05/30 02:58:50;;;;;;;1.85;1.00;;;;;;;;;;5042798;28;20204;-84
2022/05/30 03:01:17;;;;;;;5.07;1.20;;;;;;;;;;5044898;28;20195;-84
2022/05/30 03:03:44;;;;;;;1.83;1.30;;;;;;;;;;5051267;28;20230;-83
2022/05/30 03:06:11;;;;;;;2.58;1.45;;;;;;;;;;5044170;28;20211;-83
2022/05/30 03:08:38;;;;;;;3.45;1.20;;;;;;;;;;5048034;28;20586;-84
2022/05/30 03:11:07;;;;;;;4.05;1.75;;;;;;;;;;5044313;28;20200;-83
2022/05/30 03:13:34;;;;;;;1.92;1.30;;;;;;;;;;5044578;28;20224;-83
2022/05/30 03:16:01;;;;;;;1.55;1.10;;;;;;;;;;5043415;28;20574;-83
2022/05/30 03:18:28;;;;;;;3.83;1.38;;;;;;;;;;5048569;28;20198;-83
2022/05/30 03:20:55;;;;;;;1.88;0.90;;;;;;;;;;5043372;28;20199;-83
2022/05/30 03:23:22;;;;;;;3.33;1.65;;;;;;;;;;5047478;28;20222;-82
2022/05/30 03:25:50;;;;;;;2.50;1.13;;;;;;;;;;5041610;28;20206;-82
2022/05/30 03:28:18;;;;;;;5.47;1.33;;;;;;;;;;5042459;28;20209;-83
2022/05/30 03:30:45;;;;;;;3.55;1.10;;;;;;;;;;5045234;28;20207;-82
2022/05/30 03:33:12;;;;;;;1.50;1.10;;;;;;;;;;5043627;28;20192;-83
2022/05/30 03:35:39;;;;;;;2.75;1.00;;;;;;;;;;5039458;28;20225;-82
2022/05/30 03:38:07;;;;;;;1.30;0.98;;;;;;;;;;5050595;28;20206;-83
2022/05/30 03:40:36;;;;;;;1.85;1.05;;;;;;;;;;5040332;28;20764;-81
2022/05/30 03:43:04;;;;;;;5.05;1.58;;;;;;;;;;5046228;28;20219;-83
2022/05/30 03:45:32;;;;;;;1.77;1.15;;;;;;;;;;5038221;28;20203;-82
2022/05/30 03:47:59;;;;;;;2.20;1.10;;;;;;;;;;5050690;28;20203;-82
2022/05/30 03:50:26;;;;;;;3.72;1.77;;;;;;;;;;5048495;28;20203;-83
2022/05/30 03:52:53;;;;;;;4.68;1.77;;;;;;;;;;5047157;28;20208;-82
2022/05/30 03:55:22;;;;;;;1.70;1.25;;;;;;;;;;5045479;28;20282;-83
2022/05/30 03:57:50;;;;;;;2.05;1.38;;;;;;;;;;5045320;28;20697;-84
2022/05/30 04:00:18;;;;;;;4.80;1.55;;;;;;;;;;5045587;28;20658;-84
2022/05/30 04:02:48;;;;;;;4.75;1.38;;;;;;;;;;5046056;28;20674;-84
2022/05/30 04:05:15;;;;;;;5.90;2.38;;;;;;;;;;5044732;28;20225;-83
2022/05/30 04:07:42;;;;;;;3.60;1.63;;;;;;;;;;5050122;28;20207;-83
2022/05/30 04:10:10;;;;;;;3.95;1.67;;;;;;;;;;5051375;28;20202;-83
2022/05/30 04:12:38;;;;;;;1.55;1.10;;;;;;;;;;5047456;28;20203;-80
2022/05/30 04:15:06;;;;;;;2.22;1.33;;;;;;;;;;5040607;28;20199;-82
2022/05/30 04:17:35;;;;;;;3.15;1.30;;;;;;;;;;5050218;28;20230;-82
2022/05/30 04:20:03;;;;;;;3.53;1.20;;;;;;;;;;5041744;28;20207;-82
2022/05/30 04:22:31;;;;;;;2.55;1.17;;;;;;;;;;5030693;28;20204;-82
2022/05/30 04:24:58;;;;;;;2.67;1.65;;;;;;;;;;5052251;28;20215;-82
2022/05/30 04:27:25;;;;;;;2.28;1.45;;;;;;;;;;5049188;28;20260;-83
2022/05/30 04:29:53;;;;;;;2.53;1.20;;;;;;;;;;5041192;28;20252;-82
2022/05/30 04:32:20;;;;;;;4.85;1.35;;;;;;;;;;5047729;28;20195;-82
2022/05/30 04:34:47;;;;;;;2.85;1.38;;;;;;;;;;5051991;28;20191;-82
2022/05/30 04:37:16;;;;;;;2.17;1.40;;;;;;;;;;5054532;28;20215;-82
2022/05/30 04:39:43;;;;;;;6.15;1.35;;;;;;;;;;5052511;28;20210;-82
2022/05/30 04:42:10;;;;;;;4.18;1.58;;;;;;;;;;5042380;28;20211;-82
2022/05/30 04:44:37;;;;;;;3.40;1.77;;;;;;;;;;5048293;28;20677;-82
2022/05/30 04:47:05;;;;;;;2.88;1.30;;;;;;;;;;5048897;28;20214;-80
2022/05/30 04:49:33;;;;;;;4.25;1.15;;;;;;;;;;5045936;28;20203;-82
2022/05/30 04:52:00;;;;;;;4.93;1.23;;;;;;;;;;5047252;28;20604;-81
2022/05/30 04:54:28;;;;;;;7.75;1.40;;;;;;;;;;5048837;28;20202;-81
2022/05/30 04:56:55;;;;;;;4.88;1.63;;;;;;;;;;5049502;28;20202;-80
2022/05/30 04:59:22;;;;;;;3.72;1.30;;;;;;;;;;5045041;28;20218;-80
2022/05/30 05:01:49;;;;;;;3.78;1.60;;;;;;;;;;5049798;28;20202;-81
2022/05/30 05:04:16;;;;;;;4.43;1.40;;;;;;;;;;5044111;28;20219;-80
2022/05/30 05:06:44;;;;;;;2.78;1.50;;;;;;;;;;5047475;28;20214;-81
2022/05/30 05:09:25;;;;;;;5.57;1.30;;;;;;;;;;5047659;28;20298;-81
2022/05/30 05:11:54;;;;;;;2.85;1.30;;;;;;;;;;5050783;28;20202;-81
2022/05/30 05:14:21;;;;;;;2.13;1.23;;;;;;;;;;5044922;28;20614;-81
2022/05/30 05:16:48;;;;;;;2.90;1.35;;;;;;;;;;5048136;28;20573;-81
2022/05/30 05:19:16;;;;;;;3.15;1.60;;;;;;;;;;5044433;28;20214;-81
2022/05/30 05:21:45;;;;;;;3.78;1.33;;;;;;;;;;5051233;28;20206;-81
2022/05/30 05:24:12;;;;;;;4.07;1.65;;;;;;;;;;5047052;28;20280;-81
2022/05/30 05:26:44;;;;;;;3.30;2.20;;;;;;;;;;5047710;28;20212;-81
2022/05/30 05:29:13;;;;;;;2.80;1.70;;;;;;;;;;5044230;28;20195;-81
2022/05/30 05:31:40;;;;;;;2.90;1.58;;;;;;;;;;5048750;28;20199;-81
2022/05/30 05:34:08;;;;;;;5.47;2.30;;;;;;;;;;5038121;28;20601;-81
2022/05/30 05:36:36;;;;;;;3.70;1.92;;;;;;;;;;5048772;28;20732;-81
2022/05/30 05:39:03;;;;;;;3.35;1.60;;;;;;;;;;5046051;28;20199;-81
2022/05/30 05:41:31;;;;;;;3.05;1.35;;;;;;;;;;5047566;28;20226;-81
2022/05/30 05:43:58;;;;;;;3.17;1.73;;;;;;;;;;5048726;28;20219;-81
2022/05/30 05:46:27;;;;;;;7.13;2.00;;;;;;;;;;5049352;28;20207;-81
2022/05/30 05:48:54;;;;;;;3.78;1.60;;;;;;;;;;5038515;28;20277;-81
2022/05/30 05:51:22;;;;;;;1.52;1.20;;;;;;;;;;5046021;28;20551;-81
2022/05/30 05:53:49;;;;;;;1.50;1.33;;;;;;;;;;5041489;28;20203;-81
2022/05/30 05:56:18;;;;;;;2.85;1.30;;;;;;;;;;5052919;28;20203;-81
2022/05/30 05:58:45;;;;;;;4.10;1.60;;;;;;;;;;5049513;28;20217;-80
2022/05/30 06:01:13;;;;;;;1.85;1.20;;;;;;;;;;5044796;28;20553;-82
2022/05/30 06:03:41;;;;;;;2.75;1.13;;;;;;;;;;5045788;28;20214;-82
2022/05/30 06:06:08;;;;;;;1.42;0.95;;;;;;;;;;5046729;28;20192;-82
2022/05/30 06:08:36;;;;;;;2.30;1.20;;;;;;;;;;5045088;28;20210;-83
2022/05/30 06:11:08;;;;;;;4.65;1.45;;;;;;;;;;5048690;28;20207;-82
2022/05/30 06:13:35;;;;;;;2.88;1.10;;;;;;;;;;5049381;28;20235;-81
2022/05/30 06:16:05;;;;;;;1.73;1.30;;;;;;;;;;5048738;28;20211;-82
2022/05/30 06:18:32;;;;;;;3.05;1.55;;;;;;;;;;5046162;28;20204;-83
2022/05/30 06:21:00;;;;;;;5.20;1.33;;;;;;;;;;5047796;28;20211;-82
2022/05/30 06:23:27;;;;;;;4.40;1.40;;;;;;;;;;5047324;28;20218;-82
2022/05/30 06:25:55;;;;;;;1.48;1.20;;;;;;;;;;5046360;28;21029;-84
2022/05/30 06:28:22;;;;;;;1.80;1.13;;;;;;;;;;5046137;28;20204;-82
2022/05/30 06:30:49;;;;;;;1.80;1.00;;;;;;;;;;5042317;28;20196;-84
2022/05/30 06:33:16;;;;;;;2.88;1.25;;;;;;;;;;5045294;28;20205;-84
2022/05/30 06:35:44;;;;;;;1.40;1.00;;;;;;;;;;5046296;28;20223;-82
2022/05/30 06:38:13;;;;;;;3.13;1.08;;;;;;;;;;5049224;28;20200;-82
2022/05/30 06:40:42;;;;;;;2.45;1.20;;;;;;;;;;5049731;28;20194;-84
2022/05/30 06:43:10;;;;;;;1.98;1.48;;;;;;;;;;5047781;28;20585;-83
2022/05/30 06:45:37;;;;;;;1.88;1.05;;;;;;;;;;5048112;28;20698;-80
2022/05/30 06:48:04;;;;;;;2.00;1.80;;;;;;;;;;5048043;28;20617;-84
2022/05/30 06:50:31;;;;;;;2.65;1.25;;;;;;;;;;5047713;28;20658;-84
2022/05/30 06:52:58;;;;;;;2.05;0.90;;;;;;;;;;5050777;28;20241;-84
2022/05/30 06:55:27;;;;;;;2.83;1.10;;;;;;;;;;5042945;28;20195;-82
2022/05/30 07:00:39;;;;;;;5.15;1.33;;;;;;;;;;5037855;28;20665;-83
2022/05/30 07:03:06;;;;;;;4.13;1.20;;;;;;;;;;5044680;28;20566;-83
2022/05/30 07:05:34;;;;;;;2.15;1.83;;;;;;;;;;5047223;28;20301;-84
2022/05/30 07:08:01;;;;;;;3.50;1.65;;;;;;;;;;5043858;28;20187;-85
2022/05/30 07:10:30;;;;;;;2.35;1.00;;;;;;;;;;5049150;28;20685;-80
2022/05/30 07:12:58;;;;;;;1.92;1.00;;;;;;;;;;5045521;28;20213;-80
2022/05/30 07:15:25;;;;;;;1.83;1.15;;;;;;;;;;5046623;28;20237;-80
2022/05/30 07:17:52;;;;;;;4.50;0.90;;;;;;;;;;5046227;28;20309;-80
2022/05/30 07:20:20;;;;;;;2.45;1.25;;;;;;;;;;5045139;28;20260;-80
2022/05/30 07:22:47;;;;;;;3.65;1.10;;;;;;;;;;5055849;28;20566;-80
2022/05/30 07:25:14;;;;;;;2.22;1.00;;;;;;;;;;5046324;28;20233;-79
2022/05/30 07:27:42;;;;;;;2.65;1.08;;;;;;;;;;5048526;28;20215;-79
2022/05/30 07:30:10;;;;;;;1.42;1.00;;;;;;;;;;5044415;28;20244;-79
2022/05/30 07:32:37;;;;;;;3.65;1.20;;;;;;;;;;5041486;28;20555;-79
2022/05/30 07:35:04;;;;;;;2.55;1.30;;;;;;;;;;5044655;28;20642;-79
2022/05/30 07:37:31;;;;;;;2.80;1.20;;;;;;;;;;5047178;28;20220;-79
2022/05/30 07:39:58;;;;;;;1.58;1.42;;;;;;;;;;5046425;28;20195;-79
2022/05/30 07:42:25;;;;;;;1.92;1.05;;;;;;;;;;5046673;28;20211;-82
2022/05/30 07:44:54;;;;;;;2.92;1.10;;;;;;;;;;5051059;28;20222;-81
2022/05/30 07:47:21;;;;;;;4.28;1.35;;;;;;;;;;5045694;28;20198;-80
2022/05/30 07:49:48;;;;;;;1.45;0.98;;;;;;;;;;5042941;28;20202;-79
2022/05/30 07:52:15;;;;;;;15.82;2.00;;;;;;;;;;5046505;28;20224;-80
2022/05/30 07:54:43;;;;;;;3.30;1.05;;;;;;;;;;5047854;28;20589;-81
2022/05/30 07:57:11;;;;;;;1.42;0.80;;;;;;;;;;5046992;28;20195;-82
2022/05/30 07:59:39;;;;;;;1.38;1.17;;;;;;;;;;5044663;28;20207;-80
2022/05/30 08:02:08;;;;;;;1.88;1.00;;;;;;;;;;5046455;28;20294;-81
2022/05/30 08:04:36;;;;;;;1.73;1.15;;;;;;;;;;5045430;28;21378;-80
2022/05/30 08:07:05;;;;;;;3.42;1.15;;;;;;;;;;5048273;28;20206;-80
2022/05/30 08:09:32;;;;;;;1.80;1.00;;;;;;;;;;5047575;28;20195;-81
2022/05/30 08:12:01;;;;;;;1.80;1.20;;;;;;;;;;5051150;28;20202;-84
2022/05/30 08:14:28;;;;;;;2.30;1.10;;;;;;;;;;5045985;28;20245;-80
2022/05/30 08:16:55;;;;;;;2.88;1.25;;;;;;;;;;5044606;28;20696;-81
2022/05/30 08:19:23;;;;;;;6.15;1.42;;;;;;;;;;5047989;28;20199;-83
2022/05/30 08:21:50;;;;;;;2.55;1.50;;;;;;;;;;5052343;28;20206;-81
2022/05/30 08:24:17;;;;;;;1.42;0.90;;;;;;;;;;5050993;28;20202;-77
2022/05/30 08:26:45;;;;;;;1.20;0.90;;;;;;;;;;5050110;28;20203;-82
2022/05/30 08:29:12;;;;;;;5.20;1.52;;;;;;;;;;5049725;28;20195;-84
2022/05/30 08:31:39;;;;;;;2.70;1.23;;;;;;;;;;5048331;28;20245;-84
2022/05/30 08:34:06;;;;;;;3.95;1.13;;;;;;;;;;5051023;28;20198;-84
2022/05/30 08:36:35;;;;;;;1.30;1.17;;;;;;;;;;5045476;28;20566;-83
2022/05/30 08:41:49;;;;;;;1.27;0.90;;;;;;;;;;5034270;28;20223;-81
2022/05/30 08:44:17;;;;;;;2.13;1.00;;;;;;;;;;5041173;28;20539;-83
2022/05/30 08:46:57;;;;;;;1.20;0.80;;;;;;;;;;5048034;28;20669;-83
2022/05/30 08:49:28;;;;;;;5.97;1.20;;;;;;;;;;5044843;28;20203;-81
2022/05/30 08:52:10;;;;;;;2.17;1.00;;;;;;;;;;5053765;28;20231;-83
2022/05/30 08:54:40;;;;;;;1.58;0.95;;;;;;;;;;5051035;28;20191;-82
2022/05/30 08:57:11;;;;;;;4.05;1.27;;;;;;;;;;5053176;28;20253;-82
2022/05/30 08:59:45;;;;;;;2.28;1.00;;;;;;;;;;5046545;28;20199;-83
2022/05/30 09:02:14;;;;;;;2.20;1.10;;;;;;;;;;5045655;28;20678;-83
2022/05/30 09:04:43;;;;;;;2.17;1.00;;;;;;;;;;5046525;28;20242;-82
2022/05/30 09:07:13;;;;;;;1.40;1.00;;;;;;;;;;5051045;28;20201;-82
2022/05/30 09:09:44;;;;;;;3.45;1.10;;;;;;;;;;5052327;28;20207;-82
2022/05/30 09:12:16;;;;;;;2.00;0.90;;;;;;;;;;5051544;28;20269;-84
2022/05/30 09:14:45;;;;;;;5.05;1.30;;;;;;;;;;5038225;28;20211;-84
2022/05/30 09:17:17;;;;;;;1.85;1.00;;;;;;;;;;5050309;28;20650;-84
2022/05/30 09:19:44;;;;;;;2.25;1.30;;;;;;;;;;5045895;28;20204;-84
2022/05/30 09:22:13;;;;;;;2.15;1.00;;;;;;;;;;5037074;28;20203;-84
2022/05/30 09:24:42;;;;;;;1.30;0.90;;;;;;;;;;5040520;28;20204;-83
2022/05/30 09:27:12;;;;;;;1.10;0.77;;;;;;;;;;5051267;28;20608;-83
2022/05/30 09:29:48;;;;;;;2.75;1.00;;;;;;;;;;5053770;28;20202;-82
2022/05/30 09:32:18;;;;;;;2.65;0.90;;;;;;;;;;5053646;28;20194;-83
2022/05/30 09:34:46;;;;;;;7.20;1.30;;;;;;;;;;5048628;28;20291;-83
2022/05/30 09:37:29;;;;;;;3.95;1.33;;;;;;;;;;5048971;28;20735;-84
2022/05/30 09:39:56;;;;;;;2.45;0.95;;;;;;;;;;5044069;28;20197;-83
2022/05/30 09:42:25;;;;;;;1.48;0.80;;;;;;;;;;5053172;28;20289;-82
2022/05/30 09:44:55;;;;;;;1.48;1.05;;;;;;;;;;5044989;28;20217;-83
2022/05/30 09:47:22;;;;;;;4.00;0.80;;;;;;;;;;5048228;28;20195;-83
2022/05/30 09:49:50;;;;;;;1.13;0.80;;;;;;;;;;5044829;28;20219;-84
2022/05/30 09:52:27;;;;;;;1.80;0.80;;;;;;;;;;5046405;28;20205;-82
2022/05/30 09:54:56;;;;;;;1.42;1.08;;;;;;;;;;5050542;28;20210;-82
2022/05/30 09:57:25;;;;;;;1.55;0.95;;;;;;;;;;5036596;28;20208;-82
2022/05/30 09:59:54;;;;;;;1.45;1.23;;;;;;;;;;5046210;28;20202;-83
2022/05/30 10:02:23;;;;;;;2.45;1.00;;;;;;;;;;5037811;28;20200;-81
2022/05/30 10:04:55;;;;;;;1.80;1.10;;;;;;;;;;5041773;28;20631;-83
2022/05/30 10:07:22;;;;;;;2.13;0.90;;;;;;;;;;5043272;28;20625;-83
2022/05/30 10:09:54;;;;;;;1.20;0.85;;;;;;;;;;5047458;28;20206;-82
2022/05/30 10:12:30;;;;;;;1.45;0.85;;;;;;;;;;5045754;28;20428;-83
2022/05/30 10:14:58;;;;;;;2.00;0.80;;;;;;;;;;5043877;28;20222;-83
2022/05/30 10:17:29;;;;;;;1.90;0.80;;;;;;;;;;5051634;28;20195;-81
2022/05/30 10:19:57;;;;;;;2.65;1.20;;;;;;;;;;5044747;28;20586;-83
2022/05/30 10:28:39;;;;;;;1.58;0.80;;;;;;;;;;5048217;28;20205;-83
2022/05/30 10:31:12;;;;;;;2.65;1.20;;;;;;;;;;5040391;28;20234;-82
2022/05/30 10:33:51;;;;;;;1.95;1.00;;;;;;;;;;5034441;28;20207;-82
2022/05/30 10:36:20;;;;;;;1.67;1.00;;;;;;;;;;5045052;28;20191;-83
2022/05/30 10:38:56;;;;;;;1.20;0.80;;;;;;;;;;5048127;28;20769;-84
2022/05/30 10:41:26;;;;;;;1.70;1.25;;;;;;;;;;5046474;28;20332;-83
2022/05/30 10:44:00;;;;;;;1.48;0.90;;;;;;;;;;5039321;28;20674;-82
2022/05/30 10:46:33;;;;;;;1.98;0.70;;;;;;;;;;5039794;28;20223;-83
2022/05/30 10:49:04;;;;;;;1.52;0.85;;;;;;;;;;5031877;28;20192;-83
2022/05/30 10:51:36;;;;;;;1.55;1.00;;;;;;;;;;5045255;28;20220;-82
2022/05/30 10:54:06;;;;;;;0.98;0.75;;;;;;;;;;5050209;28;20650;-82
2022/05/30 10:56:34;;;;;;;1.00;0.75;;;;;;;;;;5050877;28;20780;-82
2022/05/30 10:59:07;;;;;;;1.38;0.80;;;;;;;;;;5040055;28;21615;-83
2022/05/30 11:01:42;;;;;;;1.63;0.95;;;;;;;;;;5044963;28;20199;-83
2022/05/30 11:04:29;;;;;;;1.88;0.80;;;;;;;;;;5029589;28;20199;-83
2022/05/30 11:06:58;;;;;;;1.55;0.80;;;;;;;;;;5046564;28;20222;-81
2022/05/30 11:09:28;;;;;;;1.85;0.90;;;;;;;;;;5042525;28;20195;-83
2022/05/30 11:11:59;;;;;;;2.35;0.98;;;;;;;;;;5040672;28;20199;-82
2022/05/30 11:14:32;;;;;;;1.73;0.80;;;;;;;;;;5038760;28;20211;-83
2022/05/30 11:17:05;;;;;;;2.20;0.90;;;;;;;;;;5042172;28;20195;-81
2022/05/30 11:19:35;;;;;;;1.13;0.70;;;;;;;;;;5047747;28;20207;-82
2022/05/30 11:22:05;;;;;;;2.85;0.90;;;;;;;;;;5037584;28;20199;-83
2022/05/30 11:24:34;;;;;;;2.08;1.05;;;;;;;;;;5045420;28;20227;-85
2022/05/30 11:27:13;;;;;;;1.63;0.80;;;;;;;;;;5047216;28;20686;-83
2022/05/30 11:30:10;;;;;;;1.90;0.88;;;;;;;;;;5046899;28;20531;-83
2022/05/30 11:32:46;;;;;;;1.05;0.80;;;;;;;;;;4986447;28;20213;-84
2022/05/30 11:35:21;;;;;;;1.73;0.95;;;;;;;;;;5039223;28;20225;-79
2022/05/30 11:37:54;;;;;;;2.53;0.80;;;;;;;;;;5043381;28;20210;-84
2022/05/30 11:40:25;;;;;;;1.00;0.70;;;;;;;;;;5050265;28;20203;-84
2022/05/30 11:42:58;;;;;;;2.05;0.70;;;;;;;;;;5048477;28;20655;-83
2022/05/30 11:45:33;;;;;;;7.95;1.30;;;;;;;;;;5050982;28;20208;-83
2022/05/30 11:48:07;;;;;;;1.95;0.80;;;;;;;;;;5045819;28;20197;-83
2022/05/30 11:50:36;;;;;;;1.40;0.80;;;;;;;;;;5052969;28;20534;-83
2022/05/30 11:53:11;;;;;;;1.33;0.93;;;;;;;;;;5051871;28;20214;-84
2022/05/30 11:55:41;;;;;;;1.95;0.70;;;;;;;;;;5042129;28;20202;-83
2022/05/30 11:58:11;;;;;;;1.00;0.80;;;;;;;;;;5051433;28;20274;-84
2022/05/30 12:00:41;;;;;;;1.83;0.88;;;;;;;;;;5049955;28;20222;-83
2022/05/30 12:03:31;;;;;;;2.28;1.10;;;;;;;;;;5041877;28;20192;-83
2022/05/30 12:06:19;;;;;;;1.10;0.80;;;;;;;;;;5040614;28;20226;-81
2022/05/30 12:09:10;;;;;;;1.33;0.80;;;;;;;;;;5010741;28;20562;-83
2022/05/30 12:11:55;;;;;;;2.58;0.88;;;;;;;;;;5034028;28;20651;-84
2022/05/30 12:14:33;;;;;;;1.75;0.82;;;;;;;;;;5037323;28;20202;-83
2022/05/30 12:17:04;;;;;;;3.40;1.10;;;;;;;;;;5047272;28;20202;-82
2022/05/30 12:25:41;;;;;;;2.28;1.08;;;;;;;;;;5050049;28;20202;-83
2022/05/30 12:28:08;;;;;;;1.33;0.90;;;;;;;;;;5045946;28;20194;-83
2022/05/30 12:30:44;;;;;;;1.48;0.75;;;;;;;;;;5068935;28;20271;-82
2022/05/30 12:33:26;;;;;;;1.42;0.85;;;;;;;;;;5051264;28;20191;-83
2022/05/30 12:36:26;;;;;;;1.95;0.80;;;;;;;;;;5045080;28;20195;-83
2022/05/30 12:38:53;;;;;;;3.65;0.88;;;;;;;;;;5051503;28;20203;-83
2022/05/30 12:41:21;;;;;;;0.98;0.75;;;;;;;;;;5050320;28;20730;-86
2022/05/30 12:43:49;;;;;;;1.30;0.70;;;;;;;;;;5049402;28;20207;-83
2022/05/30 12:46:19;;;;;;;1.20;0.70;;;;;;;;;;5037631;28;20246;-83
2022/05/30 12:48:48;;;;;;;1.50;0.80;;;;;;;;;;5041354;28;20206;-83
2022/05/30 12:51:21;;;;;;;1.60;0.80;;;;;;;;;;5043579;28;20202;-83
2022/05/30 12:54:07;;;;;;;1.70;0.80;;;;;;;;;;5052075;28;20195;-82
2022/05/30 12:56:52;;;;;;;2.75;0.90;;;;;;;;;;5048017;28;20658;-83
2022/05/30 12:59:19;;;;;;;0.90;0.60;;;;;;;;;;5039389;28;20613;-83
2022/05/30 13:01:52;;;;;;;0.90;0.70;;;;;;;;;;5040088;28;20196;-83
2022/05/30 13:04:24;;;;;;;1.00;0.70;;;;;;;;;;5041231;28;20214;-84
2022/05/30 13:06:56;;;;;;;1.02;0.75;;;;;;;;;;5050127;28;20704;-83
2022/05/30 13:09:25;;;;;;;1.80;1.08;;;;;;;;;;5038320;28;20199;-85
2022/05/30 13:12:19;;;;;;;1.60;0.90;;;;;;;;;;5042039;28;20204;-82
2022/05/30 13:15:05;;;;;;;2.22;0.80;;;;;;;;;;5051302;28;20206;-83
2022/05/30 13:17:37;;;;;;;1.13;0.70;;;;;;;;;;5049394;28;20195;-83
2022/05/30 13:20:06;;;;;;;0.90;0.70;;;;;;;;;;5034097;28;20199;-84
2022/05/30 13:22:36;;;;;;;1.42;0.80;;;;;;;;;;5061294;28;20198;-82
2022/05/30 13:25:04;;;;;;;1.42;0.70;;;;;;;;;;5034154;28;20219;-84
2022/05/30 13:27:32;;;;;;;1.73;0.70;;;;;;;;;;5033804;28;20278;-83
2022/05/30 13:30:02;;;;;;;1.30;0.70;;;;;;;;;;5036746;28;20202;-83
2022/05/30 13:32:31;;;;;;;1.00;0.70;;;;;;;;;;5052920;28;20195;-82
2022/05/30 13:35:02;;;;;;;1.15;0.80;;;;;;;;;;5046510;28;20674;-82
2022/05/30 13:37:31;;;;;;;1.58;0.90;;;;;;;;;;5049510;28;20196;-85
2022/05/30 13:40:01;;;;;;;2.05;0.85;;;;;;;;;;5051952;28;20208;-83
2022/05/30 13:42:30;;;;;;;3.35;1.00;;;;;;;;;;5065272;28;20214;-84
2022/05/30 13:45:01;;;;;;;1.48;0.80;;;;;;;;;;5046839;28;20199;-83
2022/05/30 13:47:28;;;;;;;1.98;1.00;;;;;;;;;;5052083;28;20226;-82
2022/05/30 13:49:58;;;;;;;1.30;0.80;;;;;;;;;;5050061;28;20199;-82
2022/05/30 13:52:26;;;;;;;1.23;0.70;;;;;;;;;;5048516;28;20202;-83
2022/05/30 13:54:57;;;;;;;1.55;0.70;;;;;;;;;;5049703;28;20207;-83
2022/05/30 13:57:28;;;;;;;1.70;0.80;;;;;;;;;;5049069;28;20210;-83
2022/05/30 13:59:56;;;;;;;1.00;0.70;;;;;;;;;;5049156;28;20219;-82
2022/05/30 14:02:25;;;;;;;1.15;0.70;;;;;;;;;;5049021;28;20202;-86
2022/05/30 14:04:56;;;;;;;1.80;0.60;;;;;;;;;;5052936;28;20190;-83
2022/05/30 14:07:25;;;;;;;0.90;0.60;;;;;;;;;;5045129;28;20226;-84
2022/05/30 14:09:54;;;;;;;1.50;0.70;;;;;;;;;;5049403;28;20214;-84
2022/05/30 14:12:31;;;;;;;1.25;0.70;;;;;;;;;;5048971;28;20195;-85
2022/05/30 14:15:11;;;;;;;1.85;0.70;;;;;;;;;;5052287;28;20561;-83
2022/05/30 14:17:38;;;;;;;1.27;0.85;;;;;;;;;;5045235;28;20638;-84
2022/05/30 14:20:11;;;;;;;1.77;0.85;;;;;;;;;;5048046;28;20209;-83
2022/05/30 14:22:39;;;;;;;1.10;0.80;;;;;;;;;;5049863;28;20605;-83
2022/05/30 14:25:12;;;;;;;4.05;0.90;;;;;;;;;;5050674;28;20206;-82
2022/05/30 14:27:39;;;;;;;1.30;0.70;;;;;;;;;;5047872;28;20290;-84
2022/05/30 14:30:08;;;;;;;1.80;0.70;;;;;;;;;;5034648;28;20207;-83
2022/05/30 14:32:55;;;;;;;1.13;0.70;;;;;;;;;;5052022;28;20206;-83
2022/05/30 14:35:27;;;;;;;1.80;0.60;;;;;;;;;;5042837;28;21838;-85
2022/05/30 14:38:04;;;;;;;1.50;1.05;;;;;;;;;;5052229;28;20207;-85
2022/05/30 14:40:35;;;;;;;2.55;0.90;;;;;;;;;;5035126;28;20206;-84
2022/05/30 14:43:03;;;;;;;1.02;0.70;;;;;;;;;;5042359;28;20570;-83
2022/05/30 14:45:34;;;;;;;1.00;0.73;;;;;;;;;;5048977;28;20211;-83
2022/05/30 14:48:05;;;;;;;2.90;0.90;;;;;;;;;;5051558;28;20211;-84
2022/05/30 14:50:36;;;;;;;1.83;0.95;;;;;;;;;;5039327;28;20545;-83
2022/05/30 14:53:05;;;;;;;1.27;0.80;;;;;;;;;;5046632;28;20194;-83
2022/05/30 14:55:33;;;;;;;1.30;0.80;;;;;;;;;;5054533;28;20218;-83
2022/05/30 14:58:10;;;;;;;1.98;0.70;;;;;;;;;;5043580;28;20372;-84
2022/05/30 15:00:39;;;;;;;1.70;0.80;;;;;;;;;;5045573;28;20211;-83
2022/05/30 15:05:56;;;;;;;0.90;0.70;;;;;;;;;;5045358;28;20693;-84
2022/05/30 15:08:24;;;;;;;2.22;0.80;;;;;;;;;;5051690;28;20708;-82
2022/05/30 15:10:51;;;;;;;4.15;0.82;;;;;;;;;;5045670;28;20663;-82
2022/05/30 15:13:18;;;;;;;0.90;0.80;;;;;;;;;;5043833;28;20195;-82
2022/05/30 15:15:46;;;;;;;2.58;0.85;;;;;;;;;;5047036;28;20211;-85
2022/05/30 15:18:15;;;;;;;1.00;0.80;;;;;;;;;;5047363;28;20223;-82
2022/05/30 15:20:44;;;;;;;2.65;0.95;;;;;;;;;;5044078;28;20199;-84
2022/05/30 15:23:11;;;;;;;1.13;0.75;;;;;;;;;;5052102;28;20191;-84
2022/05/30 15:25:39;;;;;;;1.25;0.70;;;;;;;;;;5046609;28;20630;-85
2022/05/30 15:28:06;;;;;;;1.48;1.00;;;;;;;;;;5048206;28;20234;-83